sensor_id;sensor_type;location;lat;lon;timestamp;P1;P2;P0
77413;PMS7003;66486;49.992;19.164;2023-04-28T00:02:02;58.25;52.00;32.00
77413;PMS7003;66486;49.992;19.164;2023-04-28T00:04:28;52.33;47.00;30.00
77413;PMS7003;66486;49.992;19.164;2023-04-28T00:06:54;54.75;46.25;30.00
77413;PMS7003;66486;49.992;19.164;2023-04-28T00:09:20;50.50;43.75;26.00
77413;PMS7003;66486;49.992;19.164;2023-04-28T00:11:47;44.50;42.50;19.00
77413;PMS7003;66486;49.992;19.164;2023-04-28T00:14:13;45.67;45.00;25.00
77413;PMS7003;66486;49.992;19.164;2023-04-28T00:16:39;50.50;45.00;24.50
77413;PMS7003;66486;49.992;19.164;2023-04-28T00:19:04;59.00;50.33;27.67
77413;PMS7003;66486;49.992;19.164;2023-04-28T00:21:31;42.33;40.33;26.67
77413;PMS7003;66486;49.992;19.164;2023-04-28T00:23:56;54.67;48.00;30.00
77413;PMS7003;66486;49.992;19.164;2023-04-28T00:26:22;49.00;42.50;25.25
77413;PMS7003;66486;49.992;19.164;2023-04-28T00:28:48;42.33;39.00;25.00
77413;PMS7003;66486;49.992;19.164;2023-04-28T00:31:15;70.67;56.33;30.33
77413;PMS7003;66486;49.992;19.164;2023-04-28T00:33:41;59.75;51.25;30.25
77413;PMS7003;66486;49.992;19.164;2023-04-28T00:36:08;61.67;48.00;28.00
77413;PMS7003;66486;49.992;19.164;2023-04-28T00:38:35;61.33;52.67;33.33
77413;PMS7003;66486;49.992;19.164;2023-04-28T00:41:01;56.33;49.33;31.33
77413;PMS7003;66486;49.992;19.164;2023-04-28T00:43:28;43.50;42.25;30.25
77413;PMS7003;66486;49.992;19.164;2023-04-28T00:45:54;63.50;52.50;30.25
77413;PMS7003;66486;49.992;19.164;2023-04-28T00:48:20;53.67;48.33;29.00
77413;PMS7003;66486;49.992;19.164;2023-04-28T00:50:48;52.00;47.33;25.33
77413;PMS7003;66486;49.992;19.164;2023-04-28T00:53:14;44.00;41.75;25.50
77413;PMS7003;66486;49.992;19.164;2023-04-28T00:55:41;39.67;39.00;24.00
77413;PMS7003;66486;49.992;19.164;2023-04-28T00:58:07;56.33;49.00;25.67
77413;PMS7003;66486;49.992;19.164;2023-04-28T01:00:34;42.00;40.67;19.00
77413;PMS7003;66486;49.992;19.164;2023-04-28T01:03:00;46.00;43.67;23.67
77413;PMS7003;66486;49.992;19.164;2023-04-28T01:05:26;51.67;47.00;21.00
77413;PMS7003;66486;49.992;19.164;2023-04-28T01:07:53;48.67;44.33;24.67
77413;PMS7003;66486;49.992;19.164;2023-04-28T01:10:20;47.33;44.33;25.00
77413;PMS7003;66486;49.992;19.164;2023-04-28T01:12:45;40.67;32.67;24.33
77413;PMS7003;66486;49.992;19.164;2023-04-28T01:15:16;54.67;45.67;27.67
77413;PMS7003;66486;49.992;19.164;2023-04-28T01:17:43;45.33;41.33;27.67
77413;PMS7003;66486;49.992;19.164;2023-04-28T01:20:13;60.75;51.00;28.75
77413;PMS7003;66486;49.992;19.164;2023-04-28T01:22:39;64.00;51.33;31.67
77413;PMS7003;66486;49.992;19.164;2023-04-28T01:25:06;59.00;50.00;33.00
77413;PMS7003;66486;49.992;19.164;2023-04-28T01:27:32;38.33;37.67;31.00
77413;PMS7003;66486;49.992;19.164;2023-04-28T01:29:58;56.33;50.00;30.00
77413;PMS7003;66486;49.992;19.164;2023-04-28T01:32:24;51.00;44.75;26.75
77413;PMS7003;66486;49.992;19.164;2023-04-28T01:34:50;44.33;41.67;21.67
77413;PMS7003;66486;49.992;19.164;2023-04-28T01:37:16;49.67;44.67;27.67
77413;PMS7003;66486;49.992;19.164;2023-04-28T01:39:42;67.67;52.67;32.33
77413;PMS7003;66486;49.992;19.164;2023-04-28T01:42:08;60.50;49.50;30.00
77413;PMS7003;66486;49.992;19.164;2023-04-28T01:44:34;56.50;45.00;19.25
77413;PMS7003;66486;49.992;19.164;2023-04-28T01:47:00;55.33;49.67;27.00
77413;PMS7003;66486;49.992;19.164;2023-04-28T01:49:26;36.67;34.00;20.67
77413;PMS7003;66486;49.992;19.164;2023-04-28T01:51:51;52.25;46.75;31.25
77413;PMS7003;66486;49.992;19.164;2023-04-28T01:54:18;56.75;45.25;29.50
77413;PMS7003;66486;49.992;19.164;2023-04-28T01:56:43;42.67;42.67;27.00
77413;PMS7003;66486;49.992;19.164;2023-04-28T01:59:09;54.00;48.67;29.33
77413;PMS7003;66486;49.992;19.164;2023-04-28T02:01:35;58.00;49.00;28.67
77413;PMS7003;66486;49.992;19.164;2023-04-28T02:04:01;42.67;41.67;25.67
77413;PMS7003;66486;49.992;19.164;2023-04-28T02:06:28;51.00;48.00;28.67
77413;PMS7003;66486;49.992;19.164;2023-04-28T02:08:54;57.00;48.25;30.00
77413;PMS7003;66486;49.992;19.164;2023-04-28T02:11:19;56.67;49.00;30.33
77413;PMS7003;66486;49.992;19.164;2023-04-28T02:13:46;57.33;49.67;30.33
77413;PMS7003;66486;49.992;19.164;2023-04-28T02:16:12;40.67;36.33;16.67
77413;PMS7003;66486;49.992;19.164;2023-04-28T02:18:38;50.33;45.33;30.33
77413;PMS7003;66486;49.992;19.164;2023-04-28T02:21:07;67.00;54.75;33.75
77413;PMS7003;66486;49.992;19.164;2023-04-28T02:23:35;64.50;52.00;32.50
77413;PMS7003;66486;49.992;19.164;2023-04-28T02:26:01;46.33;43.67;25.67
77413;PMS7003;66486;49.992;19.164;2023-04-28T02:28:28;55.67;48.67;27.33
77413;PMS7003;66486;49.992;19.164;2023-04-28T02:31:07;62.25;51.50;33.00
77413;PMS7003;66486;49.992;19.164;2023-04-28T02:33:34;69.50;56.50;33.25
77413;PMS7003;66486;49.992;19.164;2023-04-28T02:36:01;59.50;51.50;31.00
77413;PMS7003;66486;49.992;19.164;2023-04-28T02:38:28;67.75;56.25;33.25
77413;PMS7003;66486;49.992;19.164;2023-04-28T02:41:01;63.75;53.25;31.50
77413;PMS7003;66486;49.992;19.164;2023-04-28T02:43:29;63.25;47.75;31.25
77413;PMS7003;66486;49.992;19.164;2023-04-28T02:45:56;55.67;48.00;29.00
77413;PMS7003;66486;49.992;19.164;2023-04-28T02:48:22;58.75;49.75;31.00
77413;PMS7003;66486;49.992;19.164;2023-04-28T02:50:49;65.50;57.00;33.25
77413;PMS7003;66486;49.992;19.164;2023-04-28T02:53:15;69.00;56.50;36.00
77413;PMS7003;66486;49.992;19.164;2023-04-28T02:55:41;67.00;52.50;33.75
77413;PMS7003;66486;49.992;19.164;2023-04-28T02:58:07;66.75;52.75;29.75
77413;PMS7003;66486;49.992;19.164;2023-04-28T03:00:33;57.75;48.50;30.00
77413;PMS7003;66486;49.992;19.164;2023-04-28T03:02:59;59.75;51.25;30.50
77413;PMS7003;66486;49.992;19.164;2023-04-28T03:05:26;71.50;59.50;33.75
77413;PMS7003;66486;49.992;19.164;2023-04-28T03:07:52;69.25;57.25;33.75
77413;PMS7003;66486;49.992;19.164;2023-04-28T03:10:18;52.25;47.75;30.25
77413;PMS7003;66486;49.992;19.164;2023-04-28T03:12:44;69.50;54.25;31.75
77413;PMS7003;66486;49.992;19.164;2023-04-28T03:15:10;57.75;51.00;32.75
77413;PMS7003;66486;49.992;19.164;2023-04-28T03:17:36;62.75;54.50;33.00
77413;PMS7003;66486;49.992;19.164;2023-04-28T03:20:06;56.00;48.25;26.00
77413;PMS7003;66486;49.992;19.164;2023-04-28T03:22:33;62.75;52.75;33.00
77413;PMS7003;66486;49.992;19.164;2023-04-28T03:24:59;66.00;55.75;33.25
77413;PMS7003;66486;49.992;19.164;2023-04-28T03:27:26;62.50;52.25;33.00
77413;PMS7003;66486;49.992;19.164;2023-04-28T03:29:52;72.00;56.25;33.00
77413;PMS7003;66486;49.992;19.164;2023-04-28T03:32:18;76.25;63.00;36.50
77413;PMS7003;66486;49.992;19.164;2023-04-28T03:34:44;64.50;52.50;28.00
77413;PMS7003;66486;49.992;19.164;2023-04-28T03:37:10;63.75;53.00;31.75
77413;PMS7003;66486;49.992;19.164;2023-04-28T03:39:36;57.50;48.50;27.50
77413;PMS7003;66486;49.992;19.164;2023-04-28T03:42:02;71.25;58.50;35.75
77413;PMS7003;66486;49.992;19.164;2023-04-28T03:44:28;62.75;53.75;33.75
77413;PMS7003;66486;49.992;19.164;2023-04-28T03:46:54;62.25;53.00;30.75
77413;PMS7003;66486;49.992;19.164;2023-04-28T03:49:20;75.00;60.50;33.75
77413;PMS7003;66486;49.992;19.164;2023-04-28T03:51:46;67.00;49.75;26.25
77413;PMS7003;66486;49.992;19.164;2023-04-28T03:54:14;68.00;55.75;34.50
77413;PMS7003;66486;49.992;19.164;2023-04-28T03:56:40;68.00;57.00;34.75
77413;PMS7003;66486;49.992;19.164;2023-04-28T03:59:06;73.50;61.50;33.50
77413;PMS7003;66486;49.992;19.164;2023-04-28T04:01:36;61.25;52.75;32.75
77413;PMS7003;66486;49.992;19.164;2023-04-28T04:04:02;79.25;63.00;36.25
77413;PMS7003;66486;49.992;19.164;2023-04-28T04:06:29;77.75;63.75;35.00
77413;PMS7003;66486;49.992;19.164;2023-04-28T04:08:55;74.50;59.00;34.00
77413;PMS7003;66486;49.992;19.164;2023-04-28T04:11:21;72.25;56.75;30.50
77413;PMS7003;66486;49.992;19.164;2023-04-28T04:13:47;80.75;65.00;36.00
77413;PMS7003;66486;49.992;19.164;2023-04-28T04:16:13;81.00;63.00;33.75
77413;PMS7003;66486;49.992;19.164;2023-04-28T04:18:42;75.50;61.50;35.50
77413;PMS7003;66486;49.992;19.164;2023-04-28T04:21:08;76.00;63.25;36.00
77413;PMS7003;66486;49.992;19.164;2023-04-28T04:23:33;79.50;62.00;35.50
77413;PMS7003;66486;49.992;19.164;2023-04-28T04:26:00;80.00;62.75;39.75
77413;PMS7003;66486;49.992;19.164;2023-04-28T04:28:25;73.00;57.00;33.75
77413;PMS7003;66486;49.992;19.164;2023-04-28T04:30:51;61.50;54.00;27.00
77413;PMS7003;66486;49.992;19.164;2023-04-28T04:33:17;75.50;59.75;35.50
77413;PMS7003;66486;49.992;19.164;2023-04-28T04:35:43;85.75;66.75;39.00
77413;PMS7003;66486;49.992;19.164;2023-04-28T04:38:09;80.25;64.75;39.00
77413;PMS7003;66486;49.992;19.164;2023-04-28T04:40:35;76.50;60.75;35.75
77413;PMS7003;66486;49.992;19.164;2023-04-28T04:43:01;82.75;63.25;39.00
77413;PMS7003;66486;49.992;19.164;2023-04-28T04:45:29;79.00;63.25;38.75
77413;PMS7003;66486;49.992;19.164;2023-04-28T04:47:55;75.25;60.50;39.50
77413;PMS7003;66486;49.992;19.164;2023-04-28T04:50:21;79.75;66.00;39.25
77413;PMS7003;66486;49.992;19.164;2023-04-28T04:52:47;83.25;66.00;39.75
77413;PMS7003;66486;49.992;19.164;2023-04-28T04:55:13;58.00;48.33;33.33
77413;PMS7003;66486;49.992;19.164;2023-04-28T04:57:39;85.75;62.50;36.50
77413;PMS7003;66486;49.992;19.164;2023-04-28T05:00:05;73.00;57.33;34.00
77413;PMS7003;66486;49.992;19.164;2023-04-28T05:02:31;78.67;62.00;34.00
77413;PMS7003;66486;49.992;19.164;2023-04-28T05:04:57;81.00;66.00;39.50
77413;PMS7003;66486;49.992;19.164;2023-04-28T05:07:24;82.50;65.50;39.75
77413;PMS7003;66486;49.992;19.164;2023-04-28T05:09:51;68.67;54.33;30.00
77413;PMS7003;66486;49.992;19.164;2023-04-28T05:12:17;58.00;52.00;36.00
77413;PMS7003;66486;49.992;19.164;2023-04-28T05:14:43;78.00;64.33;37.67
77413;PMS7003;66486;49.992;19.164;2023-04-28T05:17:08;71.67;58.33;34.67
77413;PMS7003;66486;49.992;19.164;2023-04-28T05:19:35;71.25;59.00;37.50
77413;PMS7003;66486;49.992;19.164;2023-04-28T05:22:01;47.33;44.33;17.33
77413;PMS7003;66486;49.992;19.164;2023-04-28T05:24:27;50.25;46.00;30.75
77413;PMS7003;66486;49.992;19.164;2023-04-28T05:26:53;75.33;60.33;34.00
77413;PMS7003;66486;49.992;19.164;2023-04-28T05:29:23;69.50;56.25;34.00
77413;PMS7003;66486;49.992;19.164;2023-04-28T05:31:49;70.00;57.00;34.00
77413;PMS7003;66486;49.992;19.164;2023-04-28T05:34:15;52.25;47.00;29.00
77413;PMS7003;66486;49.992;19.164;2023-04-28T05:36:41;51.67;47.33;29.00
77413;PMS7003;66486;49.992;19.164;2023-04-28T05:39:08;60.75;48.00;26.00
77413;PMS7003;66486;49.992;19.164;2023-04-28T05:41:34;44.00;43.33;28.00
77413;PMS7003;66486;49.992;19.164;2023-04-28T05:44:03;52.25;48.00;30.00
77413;PMS7003;66486;49.992;19.164;2023-04-28T05:46:30;38.00;36.20;25.40
77413;PMS7003;66486;49.992;19.164;2023-04-28T05:48:56;52.00;47.50;27.00
77413;PMS7003;66486;49.992;19.164;2023-04-28T05:51:22;45.50;43.75;26.50
77413;PMS7003;66486;49.992;19.164;2023-04-28T05:53:48;42.00;37.60;25.00
77413;PMS7003;66486;49.992;19.164;2023-04-28T05:56:14;46.00;44.00;26.00
77413;PMS7003;66486;49.992;19.164;2023-04-28T05:58:41;40.60;37.00;21.80
77413;PMS7003;66486;49.992;19.164;2023-04-28T06:01:11;35.80;35.80;22.00
77413;PMS7003;66486;49.992;19.164;2023-04-28T06:03:38;42.60;39.80;24.20
77413;PMS7003;66486;49.992;19.164;2023-04-28T06:06:10;35.60;32.60;21.60
77413;PMS7003;66486;49.992;19.164;2023-04-28T06:08:37;34.40;28.60;20.80
77413;PMS7003;66486;49.992;19.164;2023-04-28T06:11:03;33.00;33.00;21.20
77413;PMS7003;66486;49.992;19.164;2023-04-28T06:13:29;31.20;29.20;17.60
77413;PMS7003;66486;49.992;19.164;2023-04-28T06:15:55;29.00;27.50;21.50
77413;PMS7003;66486;49.992;19.164;2023-04-28T06:18:22;36.00;33.20;22.40
77413;PMS7003;66486;49.992;19.164;2023-04-28T06:20:48;27.20;25.80;20.20
77413;PMS7003;66486;49.992;19.164;2023-04-28T06:23:15;27.80;27.80;21.00
77413;PMS7003;66486;49.992;19.164;2023-04-28T06:25:41;33.60;31.80;19.00
77413;PMS7003;66486;49.992;19.164;2023-04-28T06:28:07;31.40;30.00;18.80
77413;PMS7003;66486;49.992;19.164;2023-04-28T06:30:33;36.50;33.50;20.50
77413;PMS7003;66486;49.992;19.164;2023-04-28T06:32:59;27.80;26.60;18.20
77413;PMS7003;66486;49.992;19.164;2023-04-28T06:35:25;34.00;31.00;19.00
77413;PMS7003;66486;49.992;19.164;2023-04-28T06:37:51;29.40;28.80;20.20
77413;PMS7003;66486;49.992;19.164;2023-04-28T06:40:17;30.50;30.50;20.00
77413;PMS7003;66486;49.992;19.164;2023-04-28T06:42:43;39.20;32.40;18.40
77413;PMS7003;66486;49.992;19.164;2023-04-28T06:45:09;22.00;22.00;14.00
77413;PMS7003;66486;49.992;19.164;2023-04-28T06:47:36;30.80;29.80;20.00
77413;PMS7003;66486;49.992;19.164;2023-04-28T06:50:02;28.00;28.00;20.50
77413;PMS7003;66486;49.992;19.164;2023-04-28T06:52:28;37.00;35.80;23.60
77413;PMS7003;66486;49.992;19.164;2023-04-28T06:54:54;30.80;29.80;16.00
77413;PMS7003;66486;49.992;19.164;2023-04-28T06:57:21;34.20;33.00;22.00
77413;PMS7003;66486;49.992;19.164;2023-04-28T06:59:47;43.20;38.60;25.60
77413;PMS7003;66486;49.992;19.164;2023-04-28T07:02:13;34.60;33.80;22.00
77413;PMS7003;66486;49.992;19.164;2023-04-28T07:04:38;29.25;29.25;18.00
77413;PMS7003;66486;49.992;19.164;2023-04-28T07:07:05;24.80;24.80;19.40
77413;PMS7003;66486;49.992;19.164;2023-04-28T07:09:35;34.20;32.80;21.20
77413;PMS7003;66486;49.992;19.164;2023-04-28T07:12:02;37.00;37.00;23.00
77413;PMS7003;66486;49.992;19.164;2023-04-28T07:14:28;37.20;35.80;23.20
77413;PMS7003;66486;49.992;19.164;2023-04-28T07:16:54;34.60;34.20;24.40
77413;PMS7003;66486;49.992;19.164;2023-04-28T07:19:20;37.40;37.20;25.00
77413;PMS7003;66486;49.992;19.164;2023-04-28T07:21:46;35.60;33.40;22.60
77413;PMS7003;66486;49.992;19.164;2023-04-28T07:24:12;35.25;32.75;26.00
77413;PMS7003;66486;49.992;19.164;2023-04-28T07:26:38;23.00;20.80;17.20
77413;PMS7003;66486;49.992;19.164;2023-04-28T07:29:04;25.40;24.40;14.40
77413;PMS7003;66486;49.992;19.164;2023-04-28T07:31:30;31.60;30.80;20.60
77413;PMS7003;66486;49.992;19.164;2023-04-28T07:33:56;25.25;24.00;19.00
77413;PMS7003;66486;49.992;19.164;2023-04-28T07:36:22;37.20;34.40;23.00
77413;PMS7003;66486;49.992;19.164;2023-04-28T07:38:48;37.25;35.25;21.50
77413;PMS7003;66486;49.992;19.164;2023-04-28T07:41:15;31.60;31.60;21.40
77413;PMS7003;66486;49.992;19.164;2023-04-28T07:43:41;32.00;30.60;20.00
77413;PMS7003;66486;49.992;19.164;2023-04-28T07:46:07;28.20;27.40;16.60
77413;PMS7003;66486;49.992;19.164;2023-04-28T07:48:34;28.00;28.00;20.20
77413;PMS7003;66486;49.992;19.164;2023-04-28T07:51:00;24.60;24.20;17.60
77413;PMS7003;66486;49.992;19.164;2023-04-28T07:53:26;24.60;22.40;15.00
77413;PMS7003;66486;49.992;19.164;2023-04-28T07:55:53;15.40;15.40;13.80
77413;PMS7003;66486;49.992;19.164;2023-04-28T07:58:19;20.20;20.20;15.40
77413;PMS7003;66486;49.992;19.164;2023-04-28T08:00:45;21.40;19.80;14.00
77413;PMS7003;66486;49.992;19.164;2023-04-28T08:03:11;21.75;21.25;15.75
77413;PMS7003;66486;49.992;19.164;2023-04-28T08:05:37;17.60;16.80;12.00
77413;PMS7003;66486;49.992;19.164;2023-04-28T08:08:04;17.00;17.00;11.20
77413;PMS7003;66486;49.992;19.164;2023-04-28T08:10:30;13.40;13.40;10.00
77413;PMS7003;66486;49.992;19.164;2023-04-28T08:12:56;12.00;12.00;9.25
77413;PMS7003;66486;49.992;19.164;2023-04-28T08:15:22;19.80;19.00;13.20
77413;PMS7003;66486;49.992;19.164;2023-04-28T08:17:48;17.00;16.00;12.50
77413;PMS7003;66486;49.992;19.164;2023-04-28T08:20:14;14.40;14.00;10.60
77413;PMS7003;66486;49.992;19.164;2023-04-28T08:22:43;12.80;12.00;9.80
77413;PMS7003;66486;49.992;19.164;2023-04-28T08:25:09;12.80;12.80;10.00
77413;PMS7003;66486;49.992;19.164;2023-04-28T08:27:35;13.60;13.60;10.00
77413;PMS7003;66486;49.992;19.164;2023-04-28T08:30:03;7.00;7.00;6.00
77413;PMS7003;66486;49.992;19.164;2023-04-28T08:32:29;9.80;9.80;6.60
77413;PMS7003;66486;49.992;19.164;2023-04-28T08:34:55;9.80;9.80;7.40
77413;PMS7003;66486;49.992;19.164;2023-04-28T08:37:21;15.33;14.67;10.00
77413;PMS7003;66486;49.992;19.164;2023-04-28T08:39:48;10.00;10.00;7.25
77413;PMS7003;66486;49.992;19.164;2023-04-28T08:42:13;17.00;14.00;9.67
77413;PMS7003;66486;49.992;19.164;2023-04-28T08:44:41;11.25;11.25;9.00
77413;PMS7003;66486;49.992;19.164;2023-04-28T08:47:13;14.00;14.00;9.33
77413;PMS7003;66486;49.992;19.164;2023-04-28T08:49:39;11.25;11.25;9.50
77413;PMS7003;66486;49.992;19.164;2023-04-28T08:52:12;13.00;13.00;10.00
77413;PMS7003;66486;49.992;19.164;2023-04-28T08:54:42;12.00;12.00;8.50
77413;PMS7003;66486;49.992;19.164;2023-04-28T08:57:09;9.50;9.50;8.25
77413;PMS7003;66486;49.992;19.164;2023-04-28T08:59:39;11.50;11.50;9.75
77413;PMS7003;66486;49.992;19.164;2023-04-28T09:02:08;8.25;7.75;7.00
77413;PMS7003;66486;49.992;19.164;2023-04-28T09:04:35;11.00;11.00;8.25
77413;PMS7003;66486;49.992;19.164;2023-04-28T09:07:01;11.75;11.75;9.00
77413;PMS7003;66486;49.992;19.164;2023-04-28T09:09:28;11.00;8.25;7.00
77413;PMS7003;66486;49.992;19.164;2023-04-28T09:11:59;9.50;9.50;7.25
77413;PMS7003;66486;49.992;19.164;2023-04-28T09:14:26;11.00;11.00;10.00
77413;PMS7003;66486;49.992;19.164;2023-04-28T09:16:54;10.50;10.25;8.00
77413;PMS7003;66486;49.992;19.164;2023-04-28T09:19:20;10.25;8.50;6.25
77413;PMS7003;66486;49.992;19.164;2023-04-28T09:21:56;9.00;9.00;7.00
77413;PMS7003;66486;49.992;19.164;2023-04-28T09:24:29;10.50;10.00;8.00
77413;PMS7003;66486;49.992;19.164;2023-04-28T09:27:07;11.50;11.00;8.75
77413;PMS7003;66486;49.992;19.164;2023-04-28T09:29:36;8.50;8.50;6.25
77413;PMS7003;66486;49.992;19.164;2023-04-28T09:32:12;6.75;6.75;6.50
77413;PMS7003;66486;49.992;19.164;2023-04-28T09:34:48;7.75;7.75;5.75
77413;PMS7003;66486;49.992;19.164;2023-04-28T09:37:16;11.00;10.00;8.00
77413;PMS7003;66486;49.992;19.164;2023-04-28T09:39:47;6.00;6.00;5.00
77413;PMS7003;66486;49.992;19.164;2023-04-28T09:42:29;8.75;8.75;6.75
77413;PMS7003;66486;49.992;19.164;2023-04-28T09:45:09;7.75;7.75;7.00
77413;PMS7003;66486;49.992;19.164;2023-04-28T09:47:37;11.00;9.50;7.00
77413;PMS7003;66486;49.992;19.164;2023-04-28T09:50:05;8.25;8.25;7.75
77413;PMS7003;66486;49.992;19.164;2023-04-28T09:52:42;8.00;8.00;7.00
77413;PMS7003;66486;49.992;19.164;2023-04-28T09:55:11;8.25;8.25;7.00
77413;PMS7003;66486;49.992;19.164;2023-04-28T09:57:38;10.33;10.33;7.33
77413;PMS7003;66486;49.992;19.164;2023-04-28T10:00:05;10.00;10.00;8.25
77413;PMS7003;66486;49.992;19.164;2023-04-28T10:02:34;8.00;8.00;7.50
77413;PMS7003;66486;49.992;19.164;2023-04-28T10:05:01;8.00;7.75;6.75
77413;PMS7003;66486;49.992;19.164;2023-04-28T10:07:32;7.00;7.00;6.00
77413;PMS7003;66486;49.992;19.164;2023-04-28T10:10:00;9.00;8.25;7.50
77413;PMS7003;66486;49.992;19.164;2023-04-28T10:12:26;9.00;9.00;8.00
77413;PMS7003;66486;49.992;19.164;2023-04-28T10:14:53;11.25;11.25;9.25
77413;PMS7003;66486;49.992;19.164;2023-04-28T10:17:19;12.00;11.00;7.33
77413;PMS7003;66486;49.992;19.164;2023-04-28T10:19:47;7.25;7.00;6.00
77413;PMS7003;66486;49.992;19.164;2023-04-28T10:27:43;11.50;11.50;8.50
77413;PMS7003;66486;49.992;19.164;2023-04-28T10:30:14;9.00;9.00;8.00
77413;PMS7003;66486;49.992;19.164;2023-04-28T10:32:41;9.00;8.75;7.75
77413;PMS7003;66486;49.992;19.164;2023-04-28T10:38:06;9.75;9.75;8.00
77413;PMS7003;66486;49.992;19.164;2023-04-28T10:43:01;10.00;10.00;8.75
77413;PMS7003;66486;49.992;19.164;2023-04-28T10:48:22;13.50;12.00;9.00
77413;PMS7003;66486;49.992;19.164;2023-04-28T10:56:10;10.00;9.00;8.00
77413;PMS7003;66486;49.992;19.164;2023-04-28T10:58:41;11.75;11.75;9.00
77413;PMS7003;66486;49.992;19.164;2023-04-28T11:06:22;10.75;10.00;8.00
77413;PMS7003;66486;49.992;19.164;2023-04-28T11:08:51;9.00;9.00;7.50
77413;PMS7003;66486;49.992;19.164;2023-04-28T11:13:50;11.50;11.50;8.75
77413;PMS7003;66486;49.992;19.164;2023-04-28T11:16:19;9.00;8.00;6.75
77413;PMS7003;66486;49.992;19.164;2023-04-28T11:18:49;12.50;12.50;8.50
77413;PMS7003;66486;49.992;19.164;2023-04-28T11:21:30;11.25;10.50;8.75
77413;PMS7003;66486;49.992;19.164;2023-04-28T11:23:57;9.50;9.50;7.50
77413;PMS7003;66486;49.992;19.164;2023-04-28T11:26:23;8.50;8.50;7.00
77413;PMS7003;66486;49.992;19.164;2023-04-28T11:28:50;9.75;9.75;8.75
77413;PMS7003;66486;49.992;19.164;2023-04-28T11:31:19;9.00;9.00;7.50
77413;PMS7003;66486;49.992;19.164;2023-04-28T11:33:52;10.00;9.50;8.50
77413;PMS7003;66486;49.992;19.164;2023-04-28T11:36:24;7.25;7.25;6.00
77413;PMS7003;66486;49.992;19.164;2023-04-28T11:38:57;13.50;13.00;9.25
77413;PMS7003;66486;49.992;19.164;2023-04-28T11:41:24;8.00;7.25;5.25
77413;PMS7003;66486;49.992;19.164;2023-04-28T11:43:51;9.75;9.75;8.00
77413;PMS7003;66486;49.992;19.164;2023-04-28T11:46:18;9.00;9.00;7.25
77413;PMS7003;66486;49.992;19.164;2023-04-28T11:48:46;7.00;7.00;4.25
77413;PMS7003;66486;49.992;19.164;2023-04-28T11:51:29;13.00;13.00;9.25
77413;PMS7003;66486;49.992;19.164;2023-04-28T11:53:59;9.50;9.50;6.50
77413;PMS7003;66486;49.992;19.164;2023-04-28T11:56:26;10.25;10.25;8.25
77413;PMS7003;66486;49.992;19.164;2023-04-28T11:58:59;9.50;9.00;7.25
77413;PMS7003;66486;49.992;19.164;2023-04-28T12:01:30;9.50;9.00;7.75
77413;PMS7003;66486;49.992;19.164;2023-04-28T12:03:57;8.25;8.25;7.00
77413;PMS7003;66486;49.992;19.164;2023-04-28T12:06:23;9.25;9.25;8.00
77413;PMS7003;66486;49.992;19.164;2023-04-28T12:08:49;9.00;9.00;7.33
77413;PMS7003;66486;49.992;19.164;2023-04-28T12:11:17;10.00;10.00;8.33
77413;PMS7003;66486;49.992;19.164;2023-04-28T12:14:01;11.50;11.50;7.75
77413;PMS7003;66486;49.992;19.164;2023-04-28T12:16:42;6.75;6.75;4.25
77413;PMS7003;66486;49.992;19.164;2023-04-28T12:19:09;9.75;9.75;8.00
77413;PMS7003;66486;49.992;19.164;2023-04-28T12:21:37;8.00;8.00;7.00
77413;PMS7003;66486;49.992;19.164;2023-04-28T12:24:14;7.50;7.50;7.00
77413;PMS7003;66486;49.992;19.164;2023-04-28T12:26:41;12.00;12.00;8.00
77413;PMS7003;66486;49.992;19.164;2023-04-28T12:29:07;9.00;9.00;8.00
77413;PMS7003;66486;49.992;19.164;2023-04-28T12:31:50;9.50;9.50;7.75
77413;PMS7003;66486;49.992;19.164;2023-04-28T12:34:17;8.00;8.00;7.50
77413;PMS7003;66486;49.992;19.164;2023-04-28T12:36:43;7.00;7.00;6.25
77413;PMS7003;66486;49.992;19.164;2023-04-28T12:39:14;8.25;8.25;7.25
77413;PMS7003;66486;49.992;19.164;2023-04-28T12:41:44;9.00;8.50;6.00
77413;PMS7003;66486;49.992;19.164;2023-04-28T12:44:10;11.75;9.50;7.50
77413;PMS7003;66486;49.992;19.164;2023-04-28T12:46:37;8.25;8.25;6.75
77413;PMS7003;66486;49.992;19.164;2023-04-28T12:49:02;8.67;8.67;6.67
77413;PMS7003;66486;49.992;19.164;2023-04-28T12:51:28;11.00;11.00;8.00
77413;PMS7003;66486;49.992;19.164;2023-04-28T12:53:54;9.50;9.50;7.50
77413;PMS7003;66486;49.992;19.164;2023-04-28T12:56:21;9.00;9.00;8.00
77413;PMS7003;66486;49.992;19.164;2023-04-28T12:58:48;7.75;7.75;7.00
77413;PMS7003;66486;49.992;19.164;2023-04-28T13:01:14;8.00;7.50;6.50
77413;PMS7003;66486;49.992;19.164;2023-04-28T13:03:40;9.00;9.00;7.00
77413;PMS7003;66486;49.992;19.164;2023-04-28T13:06:08;9.25;9.25;8.00
77413;PMS7003;66486;49.992;19.164;2023-04-28T13:08:35;8.00;8.00;7.25
77413;PMS7003;66486;49.992;19.164;2023-04-28T13:11:01;9.25;9.00;6.50
77413;PMS7003;66486;49.992;19.164;2023-04-28T13:13:30;7.75;7.75;6.25
77413;PMS7003;66486;49.992;19.164;2023-04-28T13:15:57;9.00;9.00;7.00
77413;PMS7003;66486;49.992;19.164;2023-04-28T13:18:23;9.00;9.00;8.00
77413;PMS7003;66486;49.992;19.164;2023-04-28T13:20:49;6.75;6.75;6.00
77413;PMS7003;66486;49.992;19.164;2023-04-28T13:23:15;8.00;8.00;6.67
77413;PMS7003;66486;49.992;19.164;2023-04-28T13:25:41;8.00;8.00;7.00
77413;PMS7003;66486;49.992;19.164;2023-04-28T13:28:07;8.00;8.00;6.67
77413;PMS7003;66486;49.992;19.164;2023-04-28T13:30:33;7.75;7.75;7.00
77413;PMS7003;66486;49.992;19.164;2023-04-28T13:32:59;9.25;9.00;7.75
77413;PMS7003;66486;49.992;19.164;2023-04-28T13:35:25;8.00;8.00;7.00
77413;PMS7003;66486;49.992;19.164;2023-04-28T13:37:51;6.00;5.25;5.25
77413;PMS7003;66486;49.992;19.164;2023-04-28T13:40:26;8.00;8.00;7.00
77413;PMS7003;66486;49.992;19.164;2023-04-28T13:42:53;8.50;8.50;7.25
77413;PMS7003;66486;49.992;19.164;2023-04-28T13:45:19;5.75;5.75;5.00
77413;PMS7003;66486;49.992;19.164;2023-04-28T13:47:46;6.00;6.00;5.50
77413;PMS7003;66486;49.992;19.164;2023-04-28T13:50:13;6.75;6.75;5.00
77413;PMS7003;66486;49.992;19.164;2023-04-28T13:52:39;5.25;5.25;4.00
77413;PMS7003;66486;49.992;19.164;2023-04-28T13:55:06;5.75;5.75;5.25
77413;PMS7003;66486;49.992;19.164;2023-04-28T13:57:32;6.50;6.50;4.50
77413;PMS7003;66486;49.992;19.164;2023-04-28T13:59:58;9.00;8.50;6.75
77413;PMS7003;66486;49.992;19.164;2023-04-28T14:02:24;8.33;8.33;7.00
77413;PMS7003;66486;49.992;19.164;2023-04-28T14:04:51;7.00;7.00;5.25
77413;PMS7003;66486;49.992;19.164;2023-04-28T14:07:17;7.00;7.00;6.00
77413;PMS7003;66486;49.992;19.164;2023-04-28T14:09:44;7.75;7.50;6.50
77413;PMS7003;66486;49.992;19.164;2023-04-28T14:12:10;10.75;10.75;8.00